createdAt,value
2022-08-22T00:00:29.828Z,99757.88
2022-08-22T00:02:42.499Z,99711.09
2022-08-22T00:02:49.713Z,99808.38
2022-08-22T00:02:52.478Z,99641.44
2022-08-22T00:03:04.029Z,99664.06
2022-08-22T00:03:11.735Z,99790.47
2022-08-22T00:03:12.196Z,99755.00
2022-08-22T00:03:15.629Z,99776.66
2022-08-22T00:15:04.970Z,99778.84
2022-08-22T00:18:26.739Z,99789.63
2022-08-22T00:22:10.898Z,99810.09
2022-08-22T00:28:35.971Z,99757.38
2022-08-22T00:33:08.871Z,99792.50
2022-08-22T00:38:51.132Z,99823.97
2022-08-22T00:50:08.951Z,99813.13
2022-08-22T01:22:45.754Z,99830.53
2022-08-22T01:26:32.243Z,99816.97
2022-08-22T01:29:52.830Z,99821.38
2022-08-22T01:33:05.782Z,99822.56
2022-08-22T01:36:39.837Z,99826.94
2022-08-22T01:40:07.517Z,99826.84
2022-08-22T01:43:12.009Z,99819.75
2022-08-22T01:46:19.547Z,99828.88
2022-08-22T01:49:07.809Z,99816.88
2022-08-22T01:55:07.513Z,99821.69
2022-08-22T01:58:13.835Z,99809.94
2022-08-22T02:01:38.449Z,99819.72
2022-08-22T02:04:26.626Z,99814.13
2022-08-22T02:07:21.428Z,99801.47
2022-08-22T02:10:40.276Z,99796.94
2022-08-22T02:13:33.968Z,99797.63
2022-08-22T02:16:25.371Z,99796.63
2022-08-22T02:19:39.681Z,99791.09
2022-08-22T02:22:50.489Z,99788.88
2022-08-22T02:28:57.914Z,99787.72
2022-08-22T02:32:07.414Z,99797.44
2022-08-22T02:34:55.812Z,99773.28
2022-08-22T02:37:45.543Z,99780.00
2022-08-22T02:40:43.964Z,99772.09
2022-08-22T02:43:40.513Z,99741.09
2022-08-22T02:46:33.977Z,99784.72
2022-08-22T02:52:23.632Z,99776.13
2022-08-22T02:55:14.464Z,99778.69
2022-08-22T02:58:17.435Z,99777.84
2022-08-22T03:01:27.561Z,99777.88
2022-08-22T03:04:35.580Z,99774.56
2022-08-22T03:07:22.171Z,99782.47
2022-08-22T03:10:16.895Z,99777.13
2022-08-22T03:13:22.280Z,99768.94
2022-08-22T03:16:12.941Z,99776.84
2022-08-22T03:18:59.977Z,99781.06
2022-08-22T03:21:49.248Z,99787.03
2022-08-22T03:24:56.846Z,99798.28
2022-08-22T03:30:51.480Z,99797.16
2022-08-22T03:33:30.058Z,99800.91
2022-08-22T03:36:37.059Z,99792.72
2022-08-22T03:39:31.289Z,99801.25
2022-08-22T03:42:46.911Z,99804.09
2022-08-22T03:49:48.860Z,99798.03
2022-08-22T03:53:19.287Z,99795.38
2022-08-22T03:56:49.551Z,99792.41
2022-08-22T04:00:02.502Z,99802.41
2022-08-22T04:06:21.370Z,99801.47
2022-08-22T04:09:47.622Z,99807.44
2022-08-22T04:13:05.525Z,99816.13
2022-08-22T04:16:01.141Z,99802.06
2022-08-22T04:19:30.433Z,99725.53
2022-08-22T04:25:56.035Z,99784.47
2022-08-22T04:28:48.172Z,99806.09
2022-08-22T04:31:36.171Z,99788.47
2022-08-22T04:34:32.679Z,99811.78
2022-08-22T04:37:29.660Z,99807.28
2022-08-22T04:47:54.157Z,99812.19
2022-08-22T04:51:21.067Z,99801.66
2022-08-22T04:58:34.956Z,99810.00
2022-08-22T05:05:14.253Z,99813.66
2022-08-22T05:11:40.188Z,99830.34
2022-08-22T05:17:46.225Z,99812.28
2022-08-22T05:20:40.511Z,99803.25
2022-08-22T05:27:35.543Z,99803.81
2022-08-22T05:31:04.891Z,99811.84
2022-08-22T05:34:26.160Z,99812.69
2022-08-22T05:37:32.162Z,99814.94
2022-08-22T05:40:33.594Z,99812.97
2022-08-22T05:46:27.275Z,99806.81
2022-08-22T05:50:13.903Z,99818.94
2022-08-22T05:53:25.038Z,99777.22
2022-08-22T06:04:37.935Z,99823.84
2022-08-22T06:08:07.202Z,99857.53
2022-08-22T06:11:33.772Z,99863.00
2022-08-22T06:17:57.752Z,99864.78
2022-08-22T06:21:44.426Z,99871.09
2022-08-22T06:25:22.554Z,99857.41
2022-08-22T06:28:54.955Z,99850.44
2022-08-22T06:32:58.847Z,99859.84
2022-08-22T06:46:44.296Z,99870.41
2022-08-22T06:50:24.118Z,99875.97
2022-08-22T06:57:32.907Z,99880.88
2022-08-22T07:08:06.178Z,99879.16
2022-08-22T07:11:16.928Z,99872.16
2022-08-22T07:14:18.628Z,99883.09
2022-08-22T07:27:44.383Z,99902.38
2022-08-22T07:31:10.755Z,99886.22
2022-08-22T07:38:25.869Z,99890.63
2022-08-22T07:41:22.560Z,99888.91
2022-08-22T07:44:32.631Z,99898.16
2022-08-22T07:47:26.775Z,99890.84
2022-08-22T07:50:29.474Z,99842.69
2022-08-22T07:53:43.791Z,99877.97
2022-08-22T07:56:36.273Z,99867.53
2022-08-22T07:59:18.906Z,99876.50
2022-08-22T08:04:50.093Z,99832.13
2022-08-22T08:07:29.239Z,99869.25
2022-08-22T08:13:40.827Z,99869.28
2022-08-22T08:16:30.896Z,99866.34
2022-08-22T08:19:28.364Z,99868.50
2022-08-22T08:22:15.012Z,99860.56
2022-08-22T08:28:11.998Z,99859.41
2022-08-22T08:31:05.417Z,99857.53
2022-08-22T08:33:46.721Z,99848.66
2022-08-22T08:36:43.721Z,99853.00
2022-08-22T08:39:36.691Z,99856.81
2022-08-22T08:43:04.734Z,99851.22
2022-08-22T08:46:33.635Z,99851.59
2022-08-22T08:49:52.615Z,99856.34
2022-08-22T08:53:04.924Z,99861.69
2022-08-22T08:56:04.928Z,99857.25
2022-08-22T08:58:50.970Z,99857.06
2022-08-22T09:01:52.004Z,99864.91
2022-08-22T09:05:02.771Z,99858.13
2022-08-22T09:08:19.174Z,99869.25
2022-08-22T09:11:38.661Z,99883.41
2022-08-22T09:19:16.941Z,99868.72
2022-08-22T09:22:33.446Z,99880.19
2022-08-22T09:25:44.833Z,99870.34
2022-08-22T09:28:48.026Z,99868.28
2022-08-22T09:31:47.691Z,99867.41
2022-08-22T09:35:04.907Z,99868.53
2022-08-22T09:38:07.502Z,99845.59
2022-08-22T09:40:57.824Z,99846.38
2022-08-22T09:43:44.214Z,99827.09
2022-08-22T09:46:36.697Z,99856.63
2022-08-22T09:49:22.362Z,99872.91
2022-08-22T09:52:33.291Z,99889.78
2022-08-22T09:55:35.396Z,99897.34
2022-08-22T09:58:25.243Z,99908.06
2022-08-22T10:05:04.356Z,99900.81
2022-08-22T10:08:31.600Z,99895.97
2022-08-22T10:12:02.033Z,99893.75
2022-08-22T10:14:57.707Z,99881.66
2022-08-22T10:17:57.885Z,99888.72
2022-08-22T10:20:42.515Z,99898.06
2022-08-22T10:23:52.924Z,99868.78
2022-08-22T10:26:58.246Z,99891.00
2022-08-22T10:30:03.880Z,99902.34
2022-08-22T10:32:59.192Z,99884.53
2022-08-22T10:42:23.306Z,99873.34
2022-08-22T10:45:57.569Z,99859.47
2022-08-22T10:48:58.792Z,99868.53
2022-08-22T10:52:00.032Z,99870.75
2022-08-22T10:55:20.983Z,99856.91
2022-08-22T10:58:18.795Z,99858.03
2022-08-22T11:00:57.178Z,99860.25
2022-08-22T11:03:55.560Z,99852.41
2022-08-22T11:06:41.644Z,99835.41
2022-08-22T11:09:36.890Z,99839.84
2022-08-22T11:12:41.634Z,99840.88
2022-08-22T11:15:40.263Z,99834.81
2022-08-22T11:19:01.898Z,99821.94
2022-08-22T11:22:03.721Z,99821.56
2022-08-22T11:25:36.247Z,99815.50
2022-08-22T11:29:14.610Z,99805.88
2022-08-22T11:32:07.832Z,99809.91
2022-08-22T11:38:04.445Z,99814.78
2022-08-22T11:41:06.385Z,99807.94
2022-08-22T11:44:15.079Z,99798.72
2022-08-22T11:46:59.174Z,99759.47
2022-08-22T11:50:11.503Z,99793.25
2022-08-22T11:53:29.153Z,99781.31
2022-08-22T11:56:41.556Z,99731.53
2022-08-22T11:59:43.404Z,99769.72
2022-08-22T12:02:49.500Z,99769.38
2022-08-22T12:05:56.013Z,99756.41
2022-08-22T12:09:12.410Z,99749.41
2022-08-22T12:12:13.197Z,99745.84
2022-08-22T12:15:09.327Z,99752.66
2022-08-22T12:18:26.247Z,99739.00
2022-08-22T12:21:44.612Z,99748.06
2022-08-22T12:24:52.346Z,99745.69
2022-08-22T12:28:06.317Z,99758.19
2022-08-22T12:31:07.250Z,99746.69
2022-08-22T12:34:06.479Z,99760.84
2022-08-22T12:37:17.808Z,99783.72
2022-08-22T12:40:43.753Z,99762.03
2022-08-22T12:43:39.959Z,99791.91
2022-08-22T12:46:50.819Z,99797.44
2022-08-22T12:49:40.851Z,99781.13
2022-08-22T12:53:02.126Z,99762.19
2022-08-22T12:56:10.268Z,99769.88
2022-08-22T12:59:12.378Z,99768.66
2022-08-22T13:01:52.514Z,99753.16
2022-08-22T13:04:48.488Z,99739.69
2022-08-22T13:07:33.603Z,99697.53
2022-08-22T13:10:39.796Z,99716.34
2022-08-22T13:13:56.269Z,99712.06
2022-08-22T13:16:56.950Z,99702.88
2022-08-22T13:19:56.527Z,99693.84
2022-08-22T13:25:42.884Z,99655.09
2022-08-22T13:28:39.792Z,99610.25
2022-08-22T13:31:51.044Z,99615.63
2022-08-22T13:35:11.392Z,99599.19
2022-08-22T13:38:25.550Z,99603.94
2022-08-22T13:41:29.525Z,99611.28
2022-08-22T13:44:36.388Z,99636.50
2022-08-22T13:47:39.620Z,99612.00
2022-08-22T13:50:53.461Z,99614.63
2022-08-22T13:53:49.848Z,99625.78
2022-08-22T13:57:11.050Z,99612.91
2022-08-22T14:14:24.882Z,99577.44
2022-08-22T14:21:19.462Z,99518.38
2022-08-22T14:24:46.677Z,99564.00
2022-08-22T14:28:19.234Z,99517.63
2022-08-22T14:31:56.783Z,99489.66
2022-08-22T14:50:25.249Z,99563.84
2022-08-22T14:57:20.629Z,99401.88
2022-08-22T15:00:14.012Z,99406.19
2022-08-22T15:02:55.819Z,99451.03
2022-08-22T15:05:38.069Z,99501.63
2022-08-22T15:08:39.421Z,99380.13
2022-08-22T15:11:48.791Z,99396.56
2022-08-22T15:14:38.717Z,99499.06
2022-08-22T15:17:55.651Z,99434.16
2022-08-22T15:20:45.425Z,99398.41
2022-08-22T15:23:33.542Z,99362.75
2022-08-22T15:26:28.780Z,99397.50
2022-08-22T15:29:24.800Z,99386.84
2022-08-22T15:32:26.701Z,99445.94
2022-08-22T15:35:14.780Z,99510.88
2022-08-22T15:38:08.938Z,99421.41
2022-08-22T15:41:09.791Z,99358.13
2022-08-22T15:43:55.174Z,99339.72
2022-08-22T15:46:43.864Z,99471.16
2022-08-22T15:49:50.318Z,99504.75
2022-08-22T15:52:41.260Z,99482.06
2022-08-22T15:55:43.213Z,99478.69
2022-08-22T16:01:34.356Z,99522.28
2022-08-22T16:04:44.627Z,99513.09
2022-08-22T16:07:55.956Z,99515.50
2022-08-22T16:10:52.048Z,99501.13
2022-08-22T16:13:53.036Z,99507.44
2022-08-22T16:17:12.198Z,99494.59
2022-08-22T16:20:45.359Z,99515.22
2022-08-22T16:23:31.970Z,99491.78
2022-08-22T16:26:30.897Z,99487.06
2022-08-22T16:29:37.679Z,99443.78
2022-08-22T16:32:38.302Z,99478.00
2022-08-22T16:35:23.181Z,99459.50
2022-08-22T16:38:01.398Z,99431.25
2022-08-22T16:40:47.844Z,99447.59
2022-08-22T16:43:53.614Z,99452.72
2022-08-22T16:46:43.292Z,99390.91
2022-08-22T16:49:38.981Z,99396.97
2022-08-22T16:53:06.846Z,99344.22
2022-08-22T16:56:17.600Z,99325.88
2022-08-22T16:59:27.951Z,99325.25
2022-08-22T17:02:43.215Z,99421.13
2022-08-22T17:05:57.945Z,99436.72
2022-08-22T17:09:04.318Z,99430.78
2022-08-22T17:11:51.291Z,99389.91
2022-08-22T17:14:49.127Z,99341.75
2022-08-22T17:17:46.907Z,99292.00
2022-08-22T17:20:43.415Z,99301.97
2022-08-22T17:23:31.729Z,99250.44
2022-08-22T17:26:24.527Z,99189.53
2022-08-22T17:29:16.039Z,99212.72
2022-08-22T17:32:05.252Z,99207.75
2022-08-22T17:34:57.089Z,99241.22
2022-08-22T17:38:03.476Z,99238.59
2022-08-22T17:40:59.581Z,99221.41
2022-08-22T17:44:01.816Z,99262.84
2022-08-22T17:47:04.190Z,99272.19
2022-08-22T17:50:06.603Z,99235.72
2022-08-22T17:52:49.126Z,99201.22
2022-08-22T17:55:49.389Z,99220.28
2022-08-22T17:58:43.884Z,99196.69
2022-08-22T18:01:56.399Z,99142.00
2022-08-22T18:04:43.343Z,99111.47
2022-08-22T18:07:58.393Z,99163.75
2022-08-22T18:10:46.475Z,99145.03
2022-08-22T18:16:52.442Z,99121.69
2022-08-22T18:23:39.241Z,99052.94
2022-08-22T18:26:32.967Z,99132.78
2022-08-22T18:29:19.171Z,99136.81
2022-08-22T18:35:12.940Z,99105.25
2022-08-22T18:38:19.755Z,99104.41
2022-08-22T18:41:20.612Z,99127.13
2022-08-22T18:44:00.945Z,99141.63
2022-08-22T18:46:54.724Z,99106.75
2022-08-22T18:49:56.722Z,99125.41
2022-08-22T18:52:57.621Z,99130.22
2022-08-22T18:56:01.702Z,99129.19
2022-08-22T18:59:23.481Z,99113.34
2022-08-22T19:02:27.638Z,99089.69
2022-08-22T19:05:48.799Z,99042.84
2022-08-22T19:08:58.390Z,99023.59
2022-08-22T19:12:20.019Z,99033.31
2022-08-22T19:15:37.153Z,99043.50
2022-08-22T19:18:32.473Z,99055.38
2022-08-22T19:21:54.349Z,99046.50
2022-08-22T19:25:42.312Z,99051.78
2022-08-22T19:28:42.524Z,99042.16
2022-08-22T19:31:38.805Z,99034.44
2022-08-22T19:34:27.196Z,99009.50
2022-08-22T19:37:43.350Z,99012.28
2022-08-22T19:40:58.246Z,98985.94
2022-08-22T19:44:06.067Z,99031.94
2022-08-22T19:47:17.505Z,99015.88
2022-08-22T19:50:13.127Z,98885.38
2022-08-22T19:53:20.272Z,98909.56
2022-08-22T19:56:30.847Z,98901.09
2022-08-22T19:59:34.468Z,98903.22
2022-08-22T20:02:43.783Z,98901.97
2022-08-22T20:05:57.041Z,98924.38
2022-08-22T20:09:10.330Z,98961.38
2022-08-22T20:12:08.486Z,98994.63
2022-08-22T20:21:19.950Z,98946.53
2022-08-22T20:24:12.279Z,98947.28
2022-08-22T20:27:13.386Z,98918.97
2022-08-22T20:30:12.071Z,98870.03
2022-08-22T20:33:28.749Z,98853.34
2022-08-22T20:36:18.514Z,98803.94
2022-08-22T20:39:14.444Z,98833.91
2022-08-22T20:42:10.732Z,98819.47
2022-08-22T20:45:00.384Z,98798.66
2022-08-22T20:47:46.432Z,98791.88
2022-08-22T20:50:36.207Z,98758.50
2022-08-22T20:53:22.426Z,98773.69
2022-08-22T20:56:05.643Z,98763.13
2022-08-22T20:59:01.428Z,98766.47
2022-08-22T21:01:38.456Z,98731.97
2022-08-22T21:04:42.636Z,98748.19
2022-08-22T21:07:22.805Z,98741.59
2022-08-22T21:10:41.899Z,98685.94
2022-08-22T21:13:24.863Z,98676.84
2022-08-22T21:16:31.474Z,98666.25
2022-08-22T21:19:22.959Z,98666.25
2022-08-22T21:22:24.986Z,98635.44
2022-08-22T21:25:04.021Z,98573.81
2022-08-22T21:27:42.888Z,98616.34
2022-08-22T21:30:36.832Z,98622.50
2022-08-22T21:33:30.684Z,98610.97
2022-08-22T21:36:21.655Z,98608.56
2022-08-22T21:39:11.930Z,98609.28
2022-08-22T21:41:50.571Z,98592.41
2022-08-22T21:44:38.219Z,98589.19
2022-08-22T21:47:40.715Z,98581.38
2022-08-22T21:50:36.541Z,98525.56
2022-08-22T21:53:19.933Z,98475.53
2022-08-22T21:56:21.760Z,98490.13
2022-08-22T21:59:52.309Z,98476.03
2022-08-22T22:05:38.168Z,98469.06
2022-08-22T22:08:12.989Z,98469.06
2022-08-22T22:10:58.019Z,98408.44
2022-08-22T22:13:39.399Z,98471.56
2022-08-22T22:16:23.480Z,98481.81
2022-08-22T22:19:07.979Z,98492.97
2022-08-22T22:22:00.447Z,98501.50
2022-08-22T22:25:02.791Z,98507.28
2022-08-22T22:27:44.512Z,98509.66
2022-08-22T22:30:32.465Z,98495.56
2022-08-22T22:33:17.525Z,98451.94
2022-08-22T22:36:07.664Z,98393.78
2022-08-22T22:39:07.692Z,98428.16
2022-08-22T22:41:45.052Z,98417.34
2022-08-22T22:44:46.448Z,98425.06
2022-08-22T22:47:39.927Z,98389.00
2022-08-22T22:50:28.009Z,98397.88
2022-08-22T22:53:33.692Z,98388.25
2022-08-22T22:56:35.030Z,98345.47
2022-08-22T22:59:16.238Z,98363.50
2022-08-22T23:02:26.544Z,98337.31
2022-08-22T23:05:12.948Z,98358.44
2022-08-22T23:07:54.137Z,98337.81
2022-08-22T23:10:34.323Z,98342.84
2022-08-22T23:13:18.667Z,98339.97
2022-08-22T23:16:21.739Z,98341.66
2022-08-22T23:18:57.761Z,98347.66
2022-08-22T23:21:34.705Z,98327.72
2022-08-22T23:24:19.292Z,98354.88
2022-08-22T23:27:01.343Z,98353.41
2022-08-22T23:29:50.042Z,98314.97
2022-08-22T23:32:47.024Z,98363.53
2022-08-22T23:35:33.287Z,98369.25
2022-08-22T23:38:18.308Z,98400.03
2022-08-22T23:41:20.308Z,98424.06
2022-08-22T23:44:17.384Z,98457.88
2022-08-22T23:47:00.660Z,98465.31
2022-08-22T23:49:39.035Z,98475.03
2022-08-22T23:52:23.152Z,98471.47
2022-08-22T23:55:09.236Z,98482.88
2022-08-22T23:57:55.885Z,98468.69
